A- A+ FrançaisEnglishEspañol中国

Services sur Internet Soldes sur Internet Des idées de cadeaux Météo Météo aéro

La météo à : Autours de vous Tarbes-Lourdes-PyrénéesMontpellier-Frejorgues Brest-Guipavas Bordeaux-Yvrac

manche à air

La météo aéronautique pour les pilotes, la préparation du vol avec les METAR (METeorological Aerodrome Report, message d'observation des conditions météorologiques pour l'aviation) et Les TAF (Terminal Aerodrome Forecast : message de prévision à court terme des conditions météorologiques pour l'aviation). Et les autres ressources comme les VAC (Visual Approch Chart) et les NOTAM (Notice To Airman) pour préprer les vols.

Aéroport Lodz Lublinek (Pologne) / OACI EPLL/ IATA LCJ

L'altitude de l'aéroport Lodz Lublinek est de 184 m = 604 ft. Il est situé à proximité de Łódź (Pologne). La météo générale à 5 jours est disponible pour Lodz situé à 5.7 km.

METAR de l'aéroport Lodz Lublinek - EPLL

EPLL 110730Z 07002KT 2600 BR NSC M07/M07 Q1020

Décodage du METAR de l'aéroport Lodz Lublinek (PL)

METAR émis par EPLL le mercredi 11 décembre 2019 à 07:30 heure TU, il y a 30 minutes.

La visibilité est de 2.6 km = 1.6 sm.

La température est de -7°C = 19 °F et le point rosée est de -7°C = 19 °F . Ce qui correspond à 100% d'humidité relative.

Le QNH est de 1020 hPa = 30.12 inHg

Vent de 2 kt = 4 km/h, orienté à 70°.

Aucun nuage à une hauteur inférieure à 5000 ft ou sous l'altitude minimale de secteur. Aucun cumulonimbus ou cumulus bourgeonnant, quelle que soit leur altitude (No Significant Clouds).

BR

TAF de l'aéroport Lodz Lublinek - EPLL

EPLL 110530Z 1106/1206 VRB02KT 3000 BR SCT005

EPLL 110530Z 1106/1206 VRB02KT 3000 brume nuages épars à 005

Aéroport à proximité de Lodz Lublinek

Météo générale à 5 jours à Lodz (5.7 km)Aéroport Lask (24 km)Aéroport Leczyca (36 km)Aéroport Piotrkowtrybunalaky (43 km)Aéroport Tomaszow Mazowiecki (51 km)Aéroport Nowe Miasto (79 km)Aéroport Sochaczew (81 km)

VAC de l'aéroport Lodz Lublinek - EPLL

La carte d'approche à vue (VAC Visual Approah Chart) est fournie sans aucune garantie de son actualité. Le pilote est le seul responsable de la vérification de sa validité avant de l'utiliser opérationnellement pour préparer un vol ou l'utiliser lors de sa navigation.

VAC de EPLL

Vue aérienne de l'aéroport Lodz Lublinek

NOTAM de l'aéroport Lodz Lublinek

Les NOTAM sont fournis sans aucune garantie de leur actualité. Le pilote est le seul responsable de la vérification de sa validité avant de l'utiliser opérationnellement pour préparer un vol ou l'utiliser lors de sa navigation.

Pas de NOTAM

Sources des données